Time;durP1;ratioP1;P1;durP2;ratioP2;P2;SDS_P1;SDS_P2;PMS_P1;PMS_P2;Temp;Humidity;BMP_temperature;BMP_pressure;BME280_temperature;BME280_humidity;BME280_pressure;Samples;Min_cycle;Max_cycle;Signal;HPM_P1;HPM_P2
2022/09/25 00:01:54;;;;;;;6.38;4.00;;;15.70;99.90;;;16.07;69.21;101537.28;4824415;29;20065;-69
2022/09/25 00:04:22;;;;;;;6.40;4.03;;;15.70;99.90;;;16.04;69.19;101537.34;4838549;29;20055;-69
2022/09/25 00:06:50;;;;;;;6.78;4.18;;;15.60;99.90;;;16.10;69.19;101542.56;4824332;29;20104;-68
2022/09/25 00:09:22;;;;;;;6.90;3.67;;;15.70;99.90;;;16.00;69.34;101545.41;4824810;29;20053;-69
2022/09/25 00:11:50;;;;;;;7.93;3.45;;;15.60;99.90;;;16.02;69.55;101556.94;4824749;29;20147;-68
2022/09/25 00:14:18;;;;;;;7.93;3.75;;;15.60;99.90;;;15.97;69.64;101545.44;4824197;29;20046;-68
2022/09/25 00:16:46;;;;;;;6.00;3.85;;;15.60;99.90;;;15.99;69.64;101552.53;4824464;29;20159;-69
2022/09/25 00:22:07;;;;;;;8.35;4.22;;;15.60;99.90;;;15.80;69.61;101516.38;4824323;29;20050;-69
2022/09/25 00:24:36;;;;;;;8.75;3.95;;;15.60;99.90;;;16.01;69.65;101544.50;4824017;29;20497;-68
2022/09/25 00:27:06;;;;;;;8.00;4.43;;;15.60;99.90;;;15.97;69.73;101535.66;4823966;29;20039;-68
2022/09/25 00:29:36;;;;;;;9.38;3.97;;;15.60;99.90;;;15.97;70.10;101550.78;4823988;29;20540;-68
2022/09/25 00:32:05;;;;;;;8.95;4.30;;;15.60;99.90;;;15.95;70.00;101540.16;4823967;29;20058;-69
2022/09/25 00:34:35;;;;;;;11.40;3.58;;;15.60;99.90;;;15.84;70.00;101536.78;4823767;29;20158;-69
2022/09/25 00:37:04;;;;;;;9.10;3.53;;;15.50;99.90;;;15.66;69.96;101525.50;4824119;29;20055;-68
2022/09/25 00:39:33;;;;;;;6.68;3.65;;;15.40;99.90;;;15.70;70.30;101540.56;4823789;29;20137;-68
2022/09/25 00:42:01;;;;;;;6.72;3.50;;;15.30;99.90;;;15.67;70.29;101545.91;4823668;29;20053;-68
2022/09/25 00:44:55;;;;;;;7.18;3.50;;;15.30;99.90;;;15.63;70.79;101549.53;4823867;29;20042;-69
2022/09/25 00:47:50;;;;;;;9.13;3.67;;;15.30;99.90;;;15.67;71.06;101548.59;4824324;29;20073;-68
2022/09/25 00:50:30;;;;;;;8.43;3.78;;;15.20;99.90;;;15.60;71.08;101538.94;4827074;29;20046;-68
2022/09/25 00:53:03;;;;;;;10.10;4.00;;;15.20;99.90;;;15.53;71.31;101542.56;4827729;29;20085;-68
2022/09/25 00:55:34;;;;;;;8.05;3.80;;;15.20;99.90;;;15.61;71.27;101538.91;4827906;29;20397;-68
2022/09/25 00:58:04;;;;;;;10.90;3.72;;;15.20;99.90;;;15.55;71.41;101540.75;4827645;29;20485;-68
2022/09/25 01:00:34;;;;;;;7.82;3.80;;;15.20;99.90;;;15.44;71.34;101521.38;4827575;29;20137;-68
2022/09/25 01:03:04;;;;;;;7.35;3.20;;;15.20;99.90;;;15.47;71.60;101540.88;4827642;29;20051;-68
2022/09/25 01:05:38;;;;;;;8.15;3.30;;;15.10;99.90;;;15.46;71.83;101540.88;4827532;29;20405;-68
2022/09/25 01:08:11;;;;;;;6.90;3.25;;;15.10;99.90;;;14.69;72.12;101430.81;4841763;29;20050;-68
2022/09/25 01:10:40;;;;;;;7.22;3.50;;;15.00;99.90;;;15.32;72.47;101541.03;4826379;29;20059;-68
2022/09/25 01:13:09;;;;;;;6.60;3.33;;;14.90;99.90;;;15.21;73.22;101537.63;4827463;29;20046;-68
2022/09/25 01:15:48;;;;;;;8.88;3.63;;;14.90;99.90;;;15.29;73.21;101535.75;4827172;29;20064;-69
2022/09/25 01:18:31;;;;;;;9.70;3.50;;;14.90;99.90;;;15.34;73.30;101534.78;4827446;29;20058;-69
2022/09/25 01:21:25;;;;;;;9.00;3.28;;;14.90;99.90;;;15.29;73.09;101539.28;4827366;29;20061;-68
2022/09/25 01:24:17;;;;;;;9.50;3.50;;;14.90;99.90;;;15.32;73.38;101541.94;4826994;29;20046;-69
2022/09/25 01:27:40;;;;;;;6.43;3.47;;;14.90;99.90;;;15.39;73.31;101542.72;4827830;29;20058;-68
2022/09/25 01:30:13;;;;;;;7.70;3.72;;;14.90;99.90;;;15.32;73.38;101536.59;4826895;29;20412;-69
2022/09/25 01:32:54;;;;;;;6.50;3.95;;;15.00;99.90;;;15.34;73.29;101525.91;4827169;29;20437;-69
2022/09/25 01:35:34;;;;;;;9.80;4.10;;;15.00;99.90;;;15.39;73.17;101534.72;4827117;29;20486;-69
2022/09/25 01:38:14;;;;;;;8.55;4.10;;;15.00;99.90;;;15.42;73.00;101544.50;4826792;29;20047;-68
2022/09/25 01:40:50;;;;;;;6.88;3.53;;;15.00;99.90;;;15.20;73.47;101534.09;4826829;29;20050;-69
2022/09/25 01:43:23;;;;;;;5.78;2.75;;;14.90;99.90;;;15.00;73.25;101536.09;4841076;29;20061;-69
2022/09/25 01:45:56;;;;;;;4.75;3.13;;;14.70;99.90;;;14.94;73.85;101545.97;4841131;29;20068;-69
2022/09/25 01:48:28;;;;;;;5.35;3.50;;;14.60;99.90;;;14.93;73.78;101537.06;4826761;29;20607;-69
2022/09/25 01:51:01;;;;;;;8.82;4.15;;;14.60;99.90;;;15.00;74.00;101540.56;4826955;29;20051;-68
2022/09/25 01:53:38;;;;;;;7.35;4.00;;;14.60;99.90;;;15.02;73.85;101546.75;4826698;29;20056;-69
2022/09/25 01:56:18;;;;;;;9.20;4.32;;;14.60;99.90;;;15.08;74.00;101542.22;4826590;29;20095;-69
2022/09/25 01:58:52;;;;;;;7.85;3.80;;;14.60;99.90;;;15.08;74.32;101544.88;4826071;29;20485;-69
2022/09/25 02:01:27;;;;;;;7.10;3.50;;;14.70;99.90;;;15.08;74.21;101546.66;4839600;29;20134;-68
2022/09/25 02:03:59;;;;;;;7.78;3.35;;;14.70;99.90;;;15.00;74.44;101548.56;4826582;29;20054;-69
2022/09/25 02:06:28;;;;;;;9.35;4.30;;;14.60;99.90;;;15.01;74.84;101553.88;4825942;29;20489;-69
2022/09/25 02:09:02;;;;;;;5.72;3.83;;;14.60;99.90;;;14.97;75.13;101552.13;4826142;29;20599;-68
2022/09/25 02:11:39;;;;;;;10.38;3.95;;;14.60;99.90;;;15.05;75.58;101549.38;4840188;29;20066;-69
2022/09/25 02:14:14;;;;;;;9.70;3.78;;;14.60;99.90;;;15.01;75.40;101537.88;4839792;29;20405;-68
2022/09/25 02:16:43;;;;;;;7.13;3.83;;;14.60;99.90;;;15.13;75.29;101550.16;4825814;29;20050;-68
2022/09/25 02:22:16;;;;;;;;;;;14.80;99.90;;;15.15;75.45;101540.38;4787853;30;20074;-68
2022/09/25 02:24:49;;;;;;;7.82;3.55;;;14.80;99.90;;;15.13;75.48;101540.41;4817797;29;19925;-68
2022/09/25 02:27:26;;;;;;;4.32;3.25;;;14.80;99.90;;;15.05;75.77;101546.72;4826309;29;20127;-69
2022/09/25 02:29:56;;;;;;;10.02;3.70;;;14.70;99.90;;;15.08;75.88;101546.66;4826198;29;20141;-68
2022/09/25 02:32:30;;;;;;;6.63;3.45;;;14.70;99.90;;;14.94;75.81;101546.81;4826137;29;20055;-69
2022/09/25 02:35:00;;;;;;;6.18;3.10;;;14.60;99.90;;;14.82;75.81;101546.97;4826002;29;20461;-69
2022/09/25 02:37:30;;;;;;;4.45;3.03;;;14.50;99.90;;;14.77;75.62;101553.25;4825628;29;20057;-69
2022/09/25 02:40:00;;;;;;;8.03;3.00;;;14.40;99.90;;;14.82;75.78;101546.97;4826134;29;20070;-69
2022/09/25 02:42:38;;;;;;;4.10;3.20;;;14.50;99.90;;;14.86;75.99;101540.72;4825903;29;20408;-69
2022/09/25 02:45:29;;;;;;;4.47;3.28;;;14.50;99.90;;;14.80;76.65;101537.22;4825969;29;20051;-68
2022/09/25 02:48:06;;;;;;;;;;;14.40;99.90;;;14.68;76.38;101514.28;4840574;29;20054;-69
2022/09/25 02:50:42;;;;;;;6.50;3.47;;;14.50;99.90;;;14.75;76.78;101537.28;4825813;29;19931;-69
2022/09/25 02:53:18;;;;;;;5.65;3.22;;;14.40;99.90;;;14.66;77.37;101536.50;4825778;29;20130;-69
2022/09/25 02:55:52;;;;;;;4.55;3.30;;;14.30;99.90;;;14.56;77.11;101514.41;4825904;29;20050;-69
2022/09/25 02:58:27;;;;;;;3.70;3.35;;;14.30;99.90;;;14.58;77.05;101519.69;4825402;29;20050;-68
2022/09/25 03:00:57;;;;;;;5.47;3.72;;;14.30;99.90;;;14.55;76.93;101531.28;4824473;29;20081;-69
2022/09/25 03:03:28;;;;;;;4.57;3.55;;;14.20;99.90;;;14.57;77.00;101537.47;4825875;29;20050;-69
2022/09/25 03:05:57;;;;;;;5.35;3.40;;;14.20;99.90;;;14.48;77.28;101525.13;4825854;29;20058;-69
2022/09/25 03:08:41;;;;;;;7.63;3.72;;;14.20;99.90;;;14.67;77.67;101548.91;4825144;29;20141;-69
2022/09/25 03:11:13;;;;;;;9.77;3.63;;;14.30;99.90;;;14.73;78.08;101555.03;4825369;29;20057;-68
2022/09/25 03:13:43;;;;;;;8.25;3.40;;;14.30;99.90;;;14.74;78.79;101553.28;4824047;29;20072;-69
2022/09/25 03:16:17;;;;;;;6.60;3.60;;;14.40;99.90;;;14.84;78.95;101561.16;4825147;29;20050;-68
2022/09/25 03:18:47;;;;;;;8.18;4.05;;;14.40;99.90;;;14.74;80.27;101559.50;4824986;29;20060;-68
2022/09/25 03:21:16;;;;;;;10.02;3.83;;;14.40;99.90;;;14.59;82.23;101558.75;4824984;29;20054;-69
2022/09/25 03:23:44;;;;;;;10.60;4.65;;;14.20;99.90;;;14.57;83.36;101558.78;4824778;29;20042;-68
2022/09/25 03:26:13;;;;;;;11.20;4.60;;;14.10;99.90;;;14.62;84.30;101558.72;4838958;29;20058;-69
2022/09/25 03:28:41;;;;;;;15.15;5.38;;;14.20;99.90;;;14.81;84.00;101550.53;4825347;29;20084;-68
2022/09/25 03:31:11;;;;;;;10.38;4.78;;;14.30;99.90;;;14.82;83.82;101538.09;4824868;29;20046;-68
2022/09/25 03:33:42;;;;;;;13.93;5.35;;;14.50;99.90;;;15.05;83.44;101546.72;4825044;29;20559;-68
2022/09/25 03:36:15;;;;;;;9.13;3.97;;;14.60;99.90;;;15.10;82.89;101553.75;4825236;29;20451;-68
2022/09/25 03:38:44;;;;;;;5.85;3.75;;;14.70;99.90;;;15.18;82.63;101558.97;4824888;29;20070;-68
2022/09/25 03:41:15;;;;;;;8.63;3.80;;;14.80;99.90;;;15.23;82.34;101550.03;4824808;29;20129;-68
2022/09/25 03:43:45;;;;;;;7.85;3.95;;;14.80;99.90;;;15.34;82.09;101542.78;4824831;29;20367;-68
2022/09/25 03:46:14;;;;;;;6.68;3.80;;;14.90;99.90;;;15.34;81.72;101536.56;4824738;29;20095;-68
2022/09/25 03:48:43;;;;;;;7.65;3.97;;;15.00;99.90;;;15.41;81.42;101540.91;4824793;29;20053;-68
2022/09/25 03:51:13;;;;;;;8.43;4.15;;;15.00;99.90;;;15.42;81.10;101537.38;4824676;29;20123;-68
2022/09/25 03:53:41;;;;;;;8.73;4.18;;;15.00;99.90;;;15.44;80.69;101532.03;4825004;29;20065;-68
2022/09/25 03:56:13;;;;;;;8.25;3.50;;;15.10;99.90;;;15.39;80.80;101532.03;4824673;29;20382;-68
2022/09/25 03:58:41;;;;;;;7.78;3.92;;;15.10;99.90;;;15.37;80.50;101536.50;4838798;29;20062;-68
2022/09/25 04:01:11;;;;;;;7.68;3.60;;;15.00;99.90;;;15.30;80.35;101530.41;4824659;29;20492;-69
2022/09/25 04:03:39;;;;;;;4.70;3.22;;;14.90;99.90;;;15.27;80.19;101535.75;4824570;29;20053;-68
2022/09/25 04:06:08;;;;;;;6.40;3.47;;;14.90;99.90;;;15.25;80.04;101526.03;4825136;29;20042;-68
2022/09/25 04:08:38;;;;;;;7.95;3.20;;;14.90;99.90;;;15.04;79.84;101495.19;4824547;29;20055;-68
2022/09/25 04:11:06;;;;;;;5.30;3.00;;;14.80;99.90;;;15.15;79.94;101519.94;4824506;29;20458;-68
2022/09/25 04:13:37;;;;;;;6.05;3.40;;;14.70;99.90;;;15.13;80.34;101516.41;4824390;29;20054;-68
2022/09/25 04:16:06;;;;;;;6.43;3.40;;;14.70;99.90;;;15.13;80.02;101510.19;4824214;29;20054;-68
2022/09/25 04:18:35;;;;;;;7.13;3.33;;;14.70;99.90;;;15.05;81.14;101509.41;4824322;29;20048;-68
2022/09/25 04:21:08;;;;;;;6.15;3.35;;;14.60;99.90;;;14.97;81.79;101505.94;4824240;29;20051;-69
2022/09/25 04:23:39;;;;;;;11.43;3.42;;;14.60;99.90;;;14.90;82.15;101502.50;4823594;29;20042;-68
2022/09/25 04:26:07;;;;;;;;;;;14.50;99.90;;;14.72;82.83;101500.03;4824864;29;20061;-68
2022/09/25 04:28:36;;;;;;;6.25;3.88;;;14.40;99.90;;;14.55;83.69;101472.72;4824402;29;19924;-68
2022/09/25 04:31:05;;;;;;;5.57;3.92;;;14.30;99.90;;;14.87;83.45;101505.19;4823849;29;20054;-68
2022/09/25 04:33:47;;;;;;;9.40;3.67;;;14.40;99.90;;;14.83;83.51;101502.56;4823815;29;20062;-68
2022/09/25 04:36:17;;;;;;;6.53;3.80;;;14.40;99.90;;;14.74;83.79;101500.91;4824362;29;20059;-68
2022/09/25 04:38:48;;;;;;;4.35;3.92;;;14.30;99.90;;;14.76;84.03;101499.09;4837947;29;20146;-68
2022/09/25 04:41:18;;;;;;;7.03;3.58;;;14.30;99.90;;;14.79;83.59;101501.72;4837606;29;20065;-69
2022/09/25 04:43:47;;;;;;;4.93;4.03;;;14.40;99.90;;;14.82;83.43;101498.16;4823650;29;20051;-68
2022/09/25 04:46:16;;;;;;;4.13;3.42;;;14.40;99.90;;;14.89;83.08;101500.72;4824112;29;20058;-68
2022/09/25 04:48:50;;;;;;;7.78;4.10;;;14.40;99.90;;;14.82;83.15;101504.38;4823635;29;20439;-68
2022/09/25 04:51:18;;;;;;;9.13;4.32;;;14.40;99.90;;;14.82;83.00;101503.47;4837663;29;20066;-68
2022/09/25 04:53:48;;;;;;;7.93;3.85;;;14.40;99.90;;;14.76;82.85;101498.22;4823777;29;20053;-68
2022/09/25 04:56:16;;;;;;;6.00;4.00;;;14.40;99.90;;;14.75;83.26;101507.97;4823522;29;20047;-68
2022/09/25 04:58:46;;;;;;;4.95;3.80;;;14.30;99.90;;;14.82;82.94;101507.03;4823745;29;20056;-68
2022/09/25 05:01:16;;;;;;;6.78;3.78;;;14.40;99.90;;;14.74;82.80;101498.25;4823920;29;20138;-68
2022/09/25 05:03:48;;;;;;;7.35;3.85;;;14.40;99.90;;;14.87;82.64;101506.94;4823849;29;20078;-68
2022/09/25 05:06:17;;;;;;;5.97;4.03;;;14.40;99.90;;;14.89;82.64;101511.38;4823638;29;20062;-69
2022/09/25 05:08:49;;;;;;;7.88;3.70;;;14.50;99.90;;;14.71;82.60;101481.41;4823844;29;20047;-68
2022/09/25 05:11:18;;;;;;;4.60;3.47;;;14.50;99.90;;;14.89;82.48;101511.38;4824051;29;20133;-68
2022/09/25 05:13:50;;;;;;;4.63;3.40;;;14.50;99.90;;;14.79;82.40;101504.38;4823674;29;20050;-68
2022/09/25 05:16:19;;;;;;;6.07;3.45;;;14.40;99.90;;;14.87;82.32;101498.97;4823490;29;20043;-68
2022/09/25 05:18:47;;;;;;;4.97;3.55;;;14.50;99.90;;;14.71;81.95;101474.28;4837654;29;20134;-69
2022/09/25 05:21:16;;;;;;;6.78;2.95;;;14.40;99.90;;;14.86;82.04;101499.88;4823699;29;20362;-68
2022/09/25 05:23:44;;;;;;;6.05;3.00;;;14.50;99.90;;;14.88;82.05;101498.97;4823566;29;20042;-69
2022/09/25 05:26:14;;;;;;;4.50;3.03;;;14.50;99.90;;;14.86;81.72;101484.78;4823344;29;20054;-68
2022/09/25 05:28:42;;;;;;;7.22;3.20;;;14.50;99.90;;;14.93;81.26;101483.81;4823299;29;20050;-69
2022/09/25 05:31:11;;;;;;;4.25;3.20;;;14.50;99.90;;;14.96;81.17;101483.75;4823180;29;20080;-68
2022/09/25 05:33:39;;;;;;;5.82;3.80;;;14.60;99.90;;;15.01;81.21;101479.25;4823601;29;20050;-68
2022/09/25 05:36:08;;;;;;;4.80;3.35;;;14.60;99.90;;;15.04;80.77;101476.53;4824635;29;20060;-68
2022/09/25 05:38:39;;;;;;;6.40;3.10;;;14.60;99.90;;;15.05;80.91;101474.78;4826799;29;20409;-68
2022/09/25 05:41:10;;;;;;;6.13;3.20;;;14.70;99.90;;;15.05;80.91;101475.66;4826861;29;20055;-68
2022/09/25 05:43:43;;;;;;;4.63;3.80;;;14.70;99.90;;;15.07;80.79;101481.84;4826793;29;20412;-68
2022/09/25 05:46:12;;;;;;;5.63;3.28;;;14.70;99.90;;;15.07;80.67;101488.97;4826323;29;20129;-68
2022/09/25 05:48:40;;;;;;;4.68;3.33;;;14.70;99.90;;;15.05;81.09;101490.75;4826744;29;20456;-69
2022/09/25 05:51:09;;;;;;;6.43;3.58;;;14.70;99.90;;;15.12;81.28;101489.75;4826831;29;20042;-68
2022/09/25 05:53:38;;;;;;;4.60;3.10;;;14.70;99.90;;;15.19;81.25;101494.13;4826547;29;20046;-68
2022/09/25 05:56:06;;;;;;;6.43;3.60;;;14.80;99.90;;;15.20;80.92;101496.78;4826214;29;20061;-69
2022/09/25 05:58:36;;;;;;;4.65;3.25;;;14.80;99.90;;;15.24;80.53;101490.50;4826151;29;20054;-69
2022/09/25 06:01:06;;;;;;;6.97;3.67;;;14.80;99.90;;;15.31;79.87;101497.50;4826381;29;20068;-68
2022/09/25 06:03:35;;;;;;;6.88;3.72;;;14.90;99.90;;;15.38;79.60;101500.97;4826576;29;20038;-69
2022/09/25 06:06:04;;;;;;;5.18;3.35;;;15.00;99.90;;;15.48;79.47;101497.31;4826301;29;20077;-69
2022/09/25 06:08:34;;;;;;;5.05;3.65;;;15.10;99.90;;;15.62;79.22;101505.97;4826391;29;20118;-68
2022/09/25 06:11:04;;;;;;;10.23;3.50;;;15.20;99.90;;;15.75;79.57;101502.25;4826094;29;20565;-68
2022/09/25 06:13:33;;;;;;;6.80;3.25;;;15.40;99.90;;;15.91;79.49;101508.22;4825871;29;20055;-68
2022/09/25 06:16:02;;;;;;;6.95;3.40;;;15.50;99.90;;;15.89;78.75;101520.69;4825892;29;20042;-68
2022/09/25 06:18:32;;;;;;;4.97;3.53;;;15.50;99.90;;;15.96;78.11;101520.56;4826285;29;20081;-68
2022/09/25 06:21:04;;;;;;;7.38;4.10;;;15.60;99.90;;;16.01;77.25;101517.81;4825882;29;20046;-68
2022/09/25 06:23:32;;;;;;;7.97;3.78;;;15.70;99.90;;;16.03;76.87;101529.34;4826136;29;20054;-68
2022/09/25 06:26:02;;;;;;;7.40;3.92;;;15.70;99.90;;;15.90;77.34;101522.44;4839988;29;20054;-67
2022/09/25 06:28:31;;;;;;;7.32;4.10;;;15.60;99.90;;;15.91;77.12;101529.56;4825973;29;20054;-68
2022/09/25 06:31:00;;;;;;;7.25;3.97;;;15.60;99.90;;;15.94;77.25;101530.38;4825651;29;20091;-68
2022/09/25 06:33:30;;;;;;;6.05;3.80;;;15.60;99.90;;;15.79;77.52;101513.75;4825892;29;20494;-68
2022/09/25 06:36:00;;;;;;;6.40;3.03;;;15.50;99.90;;;15.66;77.72;101510.34;4825598;29;20137;-68
2022/09/25 06:38:29;;;;;;;6.63;3.38;;;15.40;99.90;;;15.74;77.61;101526.25;4825849;29;20134;-67
2022/09/25 06:40:59;;;;;;;10.25;4.07;;;15.40;99.90;;;15.68;77.69;101521.03;4825611;29;20047;-67
2022/09/25 06:43:28;;;;;;;6.78;3.60;;;15.40;99.90;;;15.75;77.97;101523.56;4825711;29;20057;-67
2022/09/25 06:46:02;;;;;;;5.97;3.45;;;15.40;99.90;;;15.81;78.04;101520.81;4839609;29;20049;-66
2022/09/25 06:48:31;;;;;;;8.02;3.47;;;15.40;99.90;;;15.83;78.37;101524.31;4825599;29;20055;-68
2022/09/25 06:51:01;;;;;;;6.15;3.58;;;15.50;99.90;;;15.85;78.26;101524.31;4824370;29;20061;-68
2022/09/25 06:53:30;;;;;;;7.55;3.75;;;15.40;99.90;;;15.83;78.38;101524.31;4825602;29;20050;-67
2022/09/25 06:55:59;;;;;;;6.80;3.47;;;15.40;99.90;;;15.86;78.40;101526.06;4825819;29;20090;-67
2022/09/25 06:58:30;;;;;;;6.23;3.53;;;15.50;99.90;;;15.74;78.53;101507.56;4825841;29;20078;-67
2022/09/25 07:00:58;;;;;;;6.05;3.35;;;15.40;99.90;;;15.89;78.70;101518.03;4824423;29;20099;-67
2022/09/25 07:03:44;;;;;;;5.78;3.58;;;15.50;99.90;;;15.96;78.47;101517.91;4825679;29;20095;-68
2022/09/25 07:06:16;;;;;;;6.10;3.97;;;15.60;99.90;;;15.97;78.28;101513.44;4825773;29;20374;-67
2022/09/25 07:08:46;;;;;;;6.07;3.67;;;15.60;99.90;;;15.92;78.70;101510.84;4825365;29;20061;-68
2022/09/25 07:11:16;;;;;;;;;;;15.60;99.90;;;16.04;78.69;101510.66;4839709;29;20077;-67
2022/09/25 07:13:45;;;;;;;4.65;3.78;;;15.70;99.90;;;16.02;78.63;101517.81;4824924;29;19944;-68
2022/09/25 07:16:15;;;;;;;6.80;3.78;;;15.70;99.90;;;15.99;79.17;101514.28;4824858;29;20482;-68
2022/09/25 07:18:45;;;;;;;5.03;3.70;;;15.60;99.90;;;15.23;79.33;101379.44;4824903;29;20489;-68
2022/09/25 07:21:17;;;;;;;5.63;3.50;;;15.60;99.90;;;16.10;80.28;101523.03;4825114;29;20061;-68
2022/09/25 07:23:48;;;;;;;4.30;3.35;;;15.70;99.90;;;16.15;79.84;101513.13;4825434;29;20481;-68
2022/09/25 07:26:20;;;;;;;6.68;3.70;;;15.80;99.90;;;16.11;80.04;101528.31;4824871;29;20515;-68
2022/09/25 07:28:54;;;;;;;7.93;3.92;;;15.70;99.90;;;16.16;80.32;101520.25;4825238;29;20073;-68
2022/09/25 07:31:25;;;;;;;5.72;3.80;;;15.70;99.90;;;16.19;80.19;101523.75;4824755;29;20432;-68
2022/09/25 07:33:54;;;;;;;5.90;4.28;;;15.80;99.90;;;16.17;80.33;101527.34;4825400;29;20470;-68
2022/09/25 07:36:24;;;;;;;8.35;3.95;;;15.80;99.90;;;16.20;80.24;101532.66;4824816;29;20061;-68
2022/09/25 07:38:53;;;;;;;6.47;4.10;;;15.80;99.90;;;16.22;80.58;101529.00;4824967;29;20413;-68
2022/09/25 07:41:22;;;;;;;6.07;3.95;;;15.80;99.90;;;16.23;80.76;101536.13;4824823;29;20046;-68
2022/09/25 07:43:55;;;;;;;5.95;3.53;;;15.80;99.90;;;16.26;80.33;101530.72;4825322;29;20061;-68
2022/09/25 07:46:44;;;;;;;7.10;4.20;;;15.90;99.90;;;16.31;80.40;101527.09;4824804;29;20412;-68
2022/09/25 07:49:14;;;;;;;4.50;3.53;;;15.90;99.90;;;16.34;81.45;101524.41;4824947;29;20386;-68
2022/09/25 07:51:43;;;;;;;7.97;3.95;;;15.90;99.90;;;16.41;81.62;101529.59;4824844;29;20049;-68
2022/09/25 07:54:11;;;;;;;9.20;4.30;;;16.00;99.90;;;16.44;81.28;101529.53;4825374;29;20050;-68
2022/09/25 07:56:40;;;;;;;6.65;4.20;;;16.10;99.90;;;16.54;81.35;101531.16;4824791;29;20042;-68
2022/09/25 07:59:08;;;;;;;7.97;4.20;;;16.10;99.90;;;16.68;81.56;101533.59;4824486;29;20054;-68
2022/09/25 08:01:37;;;;;;;7.97;3.92;;;16.30;99.90;;;16.99;81.49;101537.44;4824813;29;20405;-68
2022/09/25 08:04:11;;;;;;;5.72;3.55;;;16.60;99.90;;;17.25;81.38;101531.56;4838886;29;20110;-69
2022/09/25 08:06:39;;;;;;;6.72;3.42;;;16.80;99.90;;;17.50;80.55;101533.69;4824794;29;20054;-69
2022/09/25 08:09:11;;;;;;;4.95;3.53;;;17.10;99.90;;;17.62;79.05;101536.09;4824854;29;20050;-69
2022/09/25 08:11:39;;;;;;;7.25;3.60;;;17.30;99.90;;;17.54;77.53;101537.16;4824730;29;20552;-68
2022/09/25 08:14:08;;;;;;;8.55;3.60;;;17.20;99.90;;;17.72;77.34;101539.44;4824482;29;20409;-68
2022/09/25 08:16:37;;;;;;;6.10;3.33;;;17.40;99.90;;;17.82;75.91;101536.53;4838384;29;20095;-69
2022/09/25 08:19:05;;;;;;;6.18;3.63;;;17.50;99.90;;;17.85;75.87;101543.56;4824538;29;20050;-69
2022/09/25 08:21:35;;;;;;;5.85;3.55;;;17.50;99.90;;;18.16;76.65;101549.06;4838406;29;20050;-69
2022/09/25 08:24:04;;;;;;;7.43;3.27;;;17.80;99.90;;;18.35;74.98;101550.41;4824501;29;20053;-69
2022/09/25 08:26:33;;;;;;;6.63;3.28;;;18.00;99.90;;;18.48;73.80;101551.88;4824309;29;20050;-69
2022/09/25 08:29:02;;;;;;;8.75;3.75;;;18.20;99.90;;;18.46;72.44;101545.66;4824413;29;20050;-69
2022/09/25 08:31:30;;;;;;;6.35;3.42;;;18.10;99.90;;;18.37;70.95;101538.69;4823147;29;20062;-68
2022/09/25 08:33:59;;;;;;;7.85;3.17;;;18.10;99.90;;;18.63;70.78;101548.78;4824377;29;20445;-69
2022/09/25 08:36:48;;;;;;;6.50;3.38;;;18.30;99.90;;;18.86;69.96;101552.63;4824822;29;20050;-68
2022/09/25 08:39:17;;;;;;;5.80;3.10;;;18.50;99.90;;;18.88;69.27;101556.13;4824220;29;20129;-69
2022/09/25 08:41:50;;;;;;;7.75;3.55;;;18.60;99.90;;;18.88;69.60;101542.72;4824431;29;20057;-68
2022/09/25 08:44:27;;;;;;;6.22;3.22;;;18.60;99.90;;;18.81;69.31;101514.31;4824816;29;20054;-68
2022/09/25 08:49:58;;;;;;;6.00;2.85;;;18.70;99.90;;;19.15;67.93;101546.41;4824009;29;20099;-68
2022/09/25 08:52:27;;;;;;;6.25;3.17;;;18.80;99.90;;;19.03;67.75;101540.53;4824112;29;20053;-69
2022/09/25 08:54:55;;;;;;;7.30;3.40;;;18.70;99.90;;;19.30;66.98;101539.75;4823873;29;20043;-69
2022/09/25 08:57:33;;;;;;;8.02;3.78;;;18.90;99.90;;;19.28;66.28;101544.28;4823742;29;20453;-69
2022/09/25 09:00:07;;;;;;;7.13;3.33;;;18.90;99.90;;;19.45;65.98;101545.53;4824133;29;20046;-69
2022/09/25 09:02:41;;;;;;;7.95;3.40;;;19.10;99.90;;;19.79;65.40;101534.66;4823990;29;20047;-69
2022/09/25 09:05:20;;;;;;;6.03;2.80;;;19.40;99.90;;;20.12;63.80;101544.31;4824039;29;20436;-68
2022/09/25 09:07:55;;;;;;;7.65;3.05;;;19.80;99.90;;;20.14;62.04;101526.34;4824076;29;20050;-69
2022/09/25 09:10:35;;;;;;;5.30;3.15;;;19.90;99.90;;;19.99;62.75;101542.97;4823982;29;20046;-69
2022/09/25 09:13:16;;;;;;;4.25;3.13;;;19.70;99.90;;;19.99;63.62;101510.75;4827470;29;20494;-69
2022/09/25 09:15:52;;;;;;;6.55;2.92;;;19.80;99.90;;;20.50;63.20;101548.44;4827194;29;20065;-68
2022/09/25 09:18:24;;;;;;;7.03;3.08;;;20.10;99.90;;;20.78;60.95;101551.03;4827199;29;20472;-69
2022/09/25 09:20:55;;;;;;;9.05;2.83;;;20.50;99.90;;;20.74;59.84;101544.91;4827282;29;20054;-69
2022/09/25 09:23:29;;;;;;;6.72;3.00;;;20.50;99.90;;;21.00;59.43;101552.03;4841220;29;20055;-69
2022/09/25 09:26:03;;;;;;;5.10;2.70;;;20.70;99.90;;;21.14;58.71;101544.34;4826698;29;20066;-69
2022/09/25 09:29:04;;;;;;;7.20;3.17;;;20.80;99.90;;;21.15;58.80;101532.66;4827013;29;20050;-69
2022/09/25 09:31:46;;;;;;;6.97;3.30;;;20.90;99.90;;;21.47;58.54;101553.84;4826383;29;20058;-71
2022/09/25 09:34:48;;;;;;;9.27;3.17;;;21.00;99.90;;;21.79;57.96;101550.81;4827240;29;20057;-69
2022/09/25 09:37:54;;;;;;;8.85;3.35;;;21.50;99.90;;;22.06;57.88;101559.63;4840972;29;20061;-70
2022/09/25 09:40:45;;;;;;;7.03;3.35;;;21.70;99.90;;;22.26;57.24;101549.75;4826670;29;20053;-69
2022/09/25 09:43:32;;;;;;;7.65;3.15;;;22.00;99.90;;;22.51;54.51;101559.53;4825658;29;20554;-69
2022/09/25 09:46:14;;;;;;;6.82;2.97;;;22.20;99.90;;;22.59;54.46;101539.41;4826681;29;20051;-70
2022/09/25 09:48:53;;;;;;;4.82;2.92;;;22.40;99.90;;;23.04;52.80;101555.38;4827224;29;20050;-70
2022/09/25 09:51:27;;;;;;;4.40;2.80;;;22.80;99.90;;;22.99;50.60;101554.72;4840356;29;20054;-70
2022/09/25 09:54:03;;;;;;;6.00;2.40;;;22.80;99.90;;;22.72;48.03;101551.44;4826304;29;20050;-69
2022/09/25 09:56:34;;;;;;;4.53;2.53;;;22.60;99.90;;;22.63;48.61;101550.97;4826448;29;20462;-69
2022/09/25 09:59:09;;;;;;;4.03;2.42;;;22.50;99.90;;;22.32;51.11;101549.50;4825834;29;20046;-69
2022/09/25 10:01:41;;;;;;;4.80;2.90;;;22.20;99.90;;;22.88;50.01;101546.25;4825892;29;20219;-69
2022/09/25 10:04:14;;;;;;;5.72;2.70;;;22.60;99.90;;;22.83;49.05;101551.81;4825767;29;20125;-69
2022/09/25 10:06:48;;;;;;;5.93;3.20;;;22.60;99.90;;;22.73;49.48;101547.78;4825723;29;20057;-70
2022/09/25 10:09:18;;;;;;;7.13;3.00;;;22.50;99.90;;;22.90;49.68;101528.16;4840043;29;20063;-69
2022/09/25 10:11:59;;;;;;;4.23;2.80;;;22.70;99.90;;;22.97;48.74;101546.72;4824789;29;20510;-70
2022/09/25 10:14:34;;;;;;;6.72;2.90;;;22.70;99.90;;;22.14;48.36;101437.06;4826227;29;20380;-69
2022/09/25 10:17:04;;;;;;;4.32;2.80;;;22.50;99.90;;;22.46;47.85;101538.16;4825849;29;20072;-70
2022/09/25 10:19:44;;;;;;;3.88;2.70;;;22.20;99.90;;;22.45;48.72;101526.47;4839900;29;20133;-70
2022/09/25 10:22:16;;;;;;;4.05;2.70;;;22.20;99.90;;;22.18;48.35;101519.56;4825263;29;20050;-69
2022/09/25 10:24:57;;;;;;;4.53;2.72;;;22.00;99.90;;;21.96;49.22;101534.88;4825563;29;20107;-69
2022/09/25 10:27:32;;;;;;;3.95;2.95;;;21.70;99.90;;;22.18;47.98;101532.19;4825427;29;20046;-69
2022/09/25 10:30:13;;;;;;;3.58;2.40;;;21.90;99.90;;;21.98;48.38;101524.91;4825461;29;20249;-69
2022/09/25 10:32:53;;;;;;;5.07;2.65;;;21.80;99.90;;;21.66;48.77;101527.97;4825593;29;20055;-68
2022/09/25 10:35:28;;;;;;;4.30;2.67;;;21.50;99.90;;;21.61;50.01;101523.69;4839411;29;20505;-69
2022/09/25 10:38:00;;;;;;;3.85;3.10;;;21.30;99.90;;;21.96;49.75;101529.47;4825593;29;20145;-68
2022/09/25 10:40:33;;;;;;;3.50;2.30;;;21.60;99.90;;;22.16;49.12;101529.50;4825332;29;20094;-69
2022/09/25 10:43:05;;;;;;;5.72;2.92;;;21.90;99.90;;;22.08;48.27;101537.06;4825506;29;20073;-69
2022/09/25 10:45:39;;;;;;;3.35;2.30;;;21.90;99.90;;;22.22;48.92;101523.03;4825587;29;20137;-70